sensor_id;sensor_type;location;lat;lon;timestamp;pressure;altitude;pressure_sealevel;temperature;humidity
21520;BME280;10921;53.614;9.882;2022-11-02T00:01:11;101303.63;;;14.43;60.63
21520;BME280;10921;53.614;9.882;2022-11-02T00:03:39;101292.09;;;14.33;60.40
21520;BME280;10921;53.614;9.882;2022-11-02T00:06:09;101292.94;;;14.34;60.32
21520;BME280;10921;53.614;9.882;2022-11-02T00:08:35;101283.66;;;14.28;60.45
21520;BME280;10921;53.614;9.882;2022-11-02T00:11:02;101283.66;;;14.28;60.61
21520;BME280;10921;53.614;9.882;2022-11-02T00:13:28;101273.53;;;14.22;60.40
21520;BME280;10921;53.614;9.882;2022-11-02T00:15:55;101294.94;;;14.32;60.56
21520;BME280;10921;53.614;9.882;2022-11-02T00:18:22;101275.75;;;14.27;60.51
21520;BME280;10921;53.614;9.882;2022-11-02T00:20:48;101284.19;;;14.32;60.56
21520;BME280;10921;53.614;9.882;2022-11-02T00:23:15;101290.03;;;14.27;60.73
21520;BME280;10921;53.614;9.882;2022-11-02T00:25:46;101295.38;;;14.27;61.01
21520;BME280;10921;53.614;9.882;2022-11-02T00:28:14;101269.50;;;14.18;60.85
21520;BME280;10921;53.614;9.882;2022-11-02T00:30:41;101281.72;;;14.21;60.87
21520;BME280;10921;53.614;9.882;2022-11-02T00:33:08;101280.59;;;14.23;61.00
21520;BME280;10921;53.614;9.882;2022-11-02T00:35:34;101268.09;;;14.14;61.03
21520;BME280;10921;53.614;9.882;2022-11-02T00:38:01;101276.84;;;14.16;61.15
21520;BME280;10921;53.614;9.882;2022-11-02T00:40:28;101264.03;;;14.10;61.37
21520;BME280;10921;53.614;9.882;2022-11-02T00:42:54;101282.91;;;14.18;61.59
21520;BME280;10921;53.614;9.882;2022-11-02T00:45:21;101267.81;;;14.17;61.39
21520;BME280;10921;53.614;9.882;2022-11-02T00:47:49;101258.22;;;14.15;61.46
21520;BME280;10921;53.614;9.882;2022-11-02T00:50:15;101260.19;;;14.13;61.61
21520;BME280;10921;53.614;9.882;2022-11-02T00:52:42;101264.88;;;14.11;61.53
21520;BME280;10921;53.614;9.882;2022-11-02T00:55:09;101263.28;;;14.18;61.72
21520;BME280;10921;53.614;9.882;2022-11-02T00:57:38;101260.91;;;14.15;61.64
21520;BME280;10921;53.614;9.882;2022-11-02T01:00:07;101249.47;;;14.13;61.63
21520;BME280;10921;53.614;9.882;2022-11-02T01:02:35;101248.22;;;14.07;61.55
21520;BME280;10921;53.614;9.882;2022-11-02T01:05:03;101251.00;;;14.15;61.83
21520;BME280;10921;53.614;9.882;2022-11-02T01:07:30;101231.78;;;14.02;61.91
21520;BME280;10921;53.614;9.882;2022-11-02T01:09:56;101218.88;;;14.05;61.74
21520;BME280;10921;53.614;9.882;2022-11-02T01:12:23;101220.25;;;14.09;61.98
21520;BME280;10921;53.614;9.882;2022-11-02T01:14:49;101240.72;;;14.11;62.06
21520;BME280;10921;53.614;9.882;2022-11-02T01:17:16;101221.41;;;14.07;61.90
21520;BME280;10921;53.614;9.882;2022-11-02T01:19:43;101238.59;;;14.14;62.00
21520;BME280;10921;53.614;9.882;2022-11-02T01:22:09;101233.66;;;14.09;62.10
21520;BME280;10921;53.614;9.882;2022-11-02T01:24:36;101221.09;;;14.10;61.97
21520;BME280;10921;53.614;9.882;2022-11-02T01:27:02;101223.09;;;14.08;62.08
21520;BME280;10921;53.614;9.882;2022-11-02T01:29:29;101207.78;;;14.00;61.99
21520;BME280;10921;53.614;9.882;2022-11-02T01:31:55;101226.47;;;14.10;62.14
21520;BME280;10921;53.614;9.882;2022-11-02T01:34:22;101195.47;;;13.90;62.40
21520;BME280;10921;53.614;9.882;2022-11-02T01:36:49;101224.72;;;14.01;62.65
21520;BME280;10921;53.614;9.882;2022-11-02T01:39:15;101190.16;;;13.80;62.56
21520;BME280;10921;53.614;9.882;2022-11-02T01:41:42;101220.81;;;13.95;62.80
21520;BME280;10921;53.614;9.882;2022-11-02T01:44:29;101218.28;;;13.94;62.79
21520;BME280;10921;53.614;9.882;2022-11-02T01:47:03;101200.59;;;13.83;63.00
21520;BME280;10921;53.614;9.882;2022-11-02T01:49:33;101224.19;;;13.97;62.92
21520;BME280;10921;53.614;9.882;2022-11-02T01:52:05;101198.75;;;13.84;63.12
21520;BME280;10921;53.614;9.882;2022-11-02T01:54:38;101201.13;;;13.87;63.04
21520;BME280;10921;53.614;9.882;2022-11-02T01:57:12;101205.84;;;13.93;63.29
21520;BME280;10921;53.614;9.882;2022-11-02T01:59:58;101203.03;;;13.94;63.10
21520;BME280;10921;53.614;9.882;2022-11-02T02:02:26;101199.34;;;13.95;63.20
21520;BME280;10921;53.614;9.882;2022-11-02T02:05:01;101197.19;;;13.99;63.24
21520;BME280;10921;53.614;9.882;2022-11-02T02:07:29;101199.72;;;14.00;62.81
21520;BME280;10921;53.614;9.882;2022-11-02T02:09:57;101200.09;;;14.05;62.98
21520;BME280;10921;53.614;9.882;2022-11-02T02:12:24;101185.31;;;14.01;62.89
21520;BME280;10921;53.614;9.882;2022-11-02T02:14:52;101190.44;;;14.13;62.61
21520;BME280;10921;53.614;9.882;2022-11-02T02:20:10;101183.97;;;14.23;62.80
21520;BME280;10921;53.614;9.882;2022-11-02T02:28:03;101161.72;;;14.31;62.11
21520;BME280;10921;53.614;9.882;2022-11-02T02:30:45;101169.97;;;14.37;62.23
21520;BME280;10921;53.614;9.882;2022-11-02T02:33:22;101173.97;;;14.33;62.14
21520;BME280;10921;53.614;9.882;2022-11-02T02:35:57;101171.28;;;14.33;61.89
21520;BME280;10921;53.614;9.882;2022-11-02T02:38:34;101190.84;;;14.43;61.82
21520;BME280;10921;53.614;9.882;2022-11-02T02:41:12;101190.38;;;14.48;62.97
21520;BME280;10921;53.614;9.882;2022-11-02T02:43:47;101188.53;;;14.49;63.62
21520;BME280;10921;53.614;9.882;2022-11-02T02:46:20;101177.16;;;14.37;64.54
21520;BME280;10921;53.614;9.882;2022-11-02T02:48:50;101172.72;;;14.20;64.09
21520;BME280;10921;53.614;9.882;2022-11-02T02:51:21;101177.06;;;14.21;64.93
21520;BME280;10921;53.614;9.882;2022-11-02T02:54:01;101162.22;;;14.08;65.17
21520;BME280;10921;53.614;9.882;2022-11-02T02:56:37;101172.25;;;14.06;65.56
21520;BME280;10921;53.614;9.882;2022-11-02T02:59:07;101171.59;;;14.04;65.60
21520;BME280;10921;53.614;9.882;2022-11-02T03:01:39;101162.63;;;13.96;65.58
21520;BME280;10921;53.614;9.882;2022-11-02T03:04:11;101151.44;;;14.00;65.56
21520;BME280;10921;53.614;9.882;2022-11-02T03:06:40;101161.78;;;13.95;65.49
21520;BME280;10921;53.614;9.882;2022-11-02T03:09:37;101153.66;;;14.05;65.95
21520;BME280;10921;53.614;9.882;2022-11-02T03:14:51;101138.03;;;14.00;65.27
21520;BME280;10921;53.614;9.882;2022-11-02T03:17:28;101144.97;;;14.11;65.11
21520;BME280;10921;53.614;9.882;2022-11-02T03:20:21;101154.78;;;14.20;65.12
21520;BME280;10921;53.614;9.882;2022-11-02T03:23:11;101161.13;;;14.19;64.87
21520;BME280;10921;53.614;9.882;2022-11-02T03:26:13;101147.06;;;14.25;64.96
21520;BME280;10921;53.614;9.882;2022-11-02T03:29:01;101143.91;;;14.30;64.48
21520;BME280;10921;53.614;9.882;2022-11-02T03:31:40;101144.59;;;14.32;64.45
21520;BME280;10921;53.614;9.882;2022-11-02T03:34:25;101142.22;;;14.29;64.18
21520;BME280;10921;53.614;9.882;2022-11-02T03:37:28;101151.84;;;14.39;63.92
21520;BME280;10921;53.614;9.882;2022-11-02T03:40:06;101147.63;;;14.37;64.09
21520;BME280;10921;53.614;9.882;2022-11-02T03:42:36;101146.25;;;14.51;63.76
21520;BME280;10921;53.614;9.882;2022-11-02T03:45:09;101144.91;;;14.47;64.15
21520;BME280;10921;53.614;9.882;2022-11-02T03:47:48;101152.41;;;14.43;63.97
21520;BME280;10921;53.614;9.882;2022-11-02T03:50:18;101156.63;;;14.46;64.11
21520;BME280;10921;53.614;9.882;2022-11-02T03:52:50;101129.81;;;14.28;64.04
21520;BME280;10921;53.614;9.882;2022-11-02T03:55:28;101148.94;;;14.51;64.10
21520;BME280;10921;53.614;9.882;2022-11-02T03:57:56;101137.25;;;14.34;63.93
21520;BME280;10921;53.614;9.882;2022-11-02T04:00:25;101165.06;;;14.51;63.96
21520;BME280;10921;53.614;9.882;2022-11-02T04:02:56;101165.91;;;14.51;63.99
21520;BME280;10921;53.614;9.882;2022-11-02T04:05:31;101151.13;;;14.55;63.99
21520;BME280;10921;53.614;9.882;2022-11-02T04:07:58;101145.75;;;14.47;64.01
21520;BME280;10921;53.614;9.882;2022-11-02T04:10:44;101160.34;;;14.53;64.13
21520;BME280;10921;53.614;9.882;2022-11-02T04:13:29;101158.50;;;14.53;64.40
21520;BME280;10921;53.614;9.882;2022-11-02T04:16:14;101157.34;;;14.56;64.66
21520;BME280;10921;53.614;9.882;2022-11-02T04:18:42;101165.41;;;14.56;64.90
21520;BME280;10921;53.614;9.882;2022-11-02T04:21:27;101161.03;;;14.55;65.28
21520;BME280;10921;53.614;9.882;2022-11-02T04:23:54;101147.59;;;14.47;64.92
21520;BME280;10921;53.614;9.882;2022-11-02T04:26:39;101158.50;;;14.53;65.22
21520;BME280;10921;53.614;9.882;2022-11-02T04:29:05;101157.16;;;14.49;65.30
21520;BME280;10921;53.614;9.882;2022-11-02T04:31:32;101166.56;;;14.53;65.14
21520;BME280;10921;53.614;9.882;2022-11-02T04:33:58;101170.25;;;14.52;65.35
21520;BME280;10921;53.614;9.882;2022-11-02T04:36:28;101174.97;;;14.50;65.51
21520;BME280;10921;53.614;9.882;2022-11-02T04:38:55;101163.03;;;14.53;65.12
21520;BME280;10921;53.614;9.882;2022-11-02T04:41:22;101184.84;;;14.50;65.46
21520;BME280;10921;53.614;9.882;2022-11-02T04:44:12;101169.06;;;14.47;65.50
21520;BME280;10921;53.614;9.882;2022-11-02T04:46:50;101160.22;;;14.36;65.73
21520;BME280;10921;53.614;9.882;2022-11-02T04:49:16;101166.84;;;14.42;65.67
21520;BME280;10921;53.614;9.882;2022-11-02T04:51:43;101166.16;;;14.40;65.85
21520;BME280;10921;53.614;9.882;2022-11-02T04:54:14;101164.59;;;14.37;65.98
21520;BME280;10921;53.614;9.882;2022-11-02T04:56:41;101174.59;;;14.45;65.95
21520;BME280;10921;53.614;9.882;2022-11-02T04:59:07;101166.69;;;14.43;66.03
21520;BME280;10921;53.614;9.882;2022-11-02T05:01:34;101173.75;;;14.45;66.07
21520;BME280;10921;53.614;9.882;2022-11-02T05:04:00;101166.53;;;14.45;65.70
21520;BME280;10921;53.614;9.882;2022-11-02T05:06:26;101170.38;;;14.42;65.93
21520;BME280;10921;53.614;9.882;2022-11-02T05:08:54;101171.38;;;14.41;66.02
21520;BME280;10921;53.614;9.882;2022-11-02T05:11:20;101160.47;;;14.43;66.16
21520;BME280;10921;53.614;9.882;2022-11-02T05:13:46;101168.38;;;14.45;66.05
21520;BME280;10921;53.614;9.882;2022-11-02T05:16:15;101165.00;;;14.42;65.90
21520;BME280;10921;53.614;9.882;2022-11-02T05:18:42;101169.41;;;14.52;65.99
21520;BME280;10921;53.614;9.882;2022-11-02T05:21:09;101159.50;;;14.52;65.75
21520;BME280;10921;53.614;9.882;2022-11-02T05:23:37;101163.88;;;14.53;65.58
21520;BME280;10921;53.614;9.882;2022-11-02T05:26:07;101140.53;;;14.46;65.54
21520;BME280;10921;53.614;9.882;2022-11-02T05:28:34;101159.03;;;14.57;65.48
21520;BME280;10921;53.614;9.882;2022-11-02T05:31:01;101160.72;;;14.58;65.44
21520;BME280;10921;53.614;9.882;2022-11-02T05:33:29;101161.72;;;14.57;65.59
21520;BME280;10921;53.614;9.882;2022-11-02T05:35:57;101159.50;;;14.52;65.99
21520;BME280;10921;53.614;9.882;2022-11-02T05:38:25;101166.41;;;14.55;65.94
21520;BME280;10921;53.614;9.882;2022-11-02T05:40:55;101152.41;;;14.43;66.00
21520;BME280;10921;53.614;9.882;2022-11-02T05:43:23;101164.03;;;14.52;66.19
21520;BME280;10921;53.614;9.882;2022-11-02T05:45:54;101153.25;;;14.43;66.36
21520;BME280;10921;53.614;9.882;2022-11-02T05:48:22;101149.25;;;14.48;66.13
21520;BME280;10921;53.614;9.882;2022-11-02T05:50:48;101160.69;;;14.50;66.37
21520;BME280;10921;53.614;9.882;2022-11-02T05:53:15;101163.00;;;14.45;66.41
21520;BME280;10921;53.614;9.882;2022-11-02T05:55:41;101153.34;;;14.34;66.58
21520;BME280;10921;53.614;9.882;2022-11-02T05:58:08;101159.56;;;14.34;66.77
21520;BME280;10921;53.614;9.882;2022-11-02T06:00:34;101162.91;;;14.36;66.98
21520;BME280;10921;53.614;9.882;2022-11-02T06:03:01;101172.28;;;14.32;66.95
21520;BME280;10921;53.614;9.882;2022-11-02T06:05:28;101156.34;;;14.31;67.28
21520;BME280;10921;53.614;9.882;2022-11-02T06:07:59;101158.81;;;14.24;67.49
21520;BME280;10921;53.614;9.882;2022-11-02T06:10:29;101163.75;;;14.37;67.34
21520;BME280;10921;53.614;9.882;2022-11-02T06:12:58;101169.13;;;14.37;67.10
21520;BME280;10921;53.614;9.882;2022-11-02T06:15:25;101180.41;;;14.40;67.05
21520;BME280;10921;53.614;9.882;2022-11-02T06:17:52;101171.06;;;14.45;67.01
21520;BME280;10921;53.614;9.882;2022-11-02T06:20:19;101172.38;;;14.40;67.00
21520;BME280;10921;53.614;9.882;2022-11-02T06:22:46;101178.28;;;14.44;66.83
21520;BME280;10921;53.614;9.882;2022-11-02T06:25:13;101190.69;;;14.45;66.94
21520;BME280;10921;53.614;9.882;2022-11-02T06:27:39;101171.06;;;14.45;67.10
21520;BME280;10921;53.614;9.882;2022-11-02T06:30:11;101176.44;;;14.45;67.16
21520;BME280;10921;53.614;9.882;2022-11-02T06:32:37;101184.06;;;14.39;67.33
21520;BME280;10921;53.614;9.882;2022-11-02T06:35:04;101185.06;;;14.38;67.38
21520;BME280;10921;53.614;9.882;2022-11-02T06:37:32;101186.91;;;14.38;67.50
21520;BME280;10921;53.614;9.882;2022-11-02T06:39:59;101191.25;;;14.31;68.32
21520;BME280;10921;53.614;9.882;2022-11-02T06:42:26;101188.25;;;14.34;68.12
21520;BME280;10921;53.614;9.882;2022-11-02T06:44:52;101178.81;;;14.30;68.12
21520;BME280;10921;53.614;9.882;2022-11-02T06:47:19;101197.72;;;14.20;69.12
21520;BME280;10921;53.614;9.882;2022-11-02T06:49:45;101187.28;;;14.17;69.40
21520;BME280;10921;53.614;9.882;2022-11-02T06:52:12;101198.63;;;14.11;70.00
21520;BME280;10921;53.614;9.882;2022-11-02T06:54:38;101187.22;;;14.09;69.83
21520;BME280;10921;53.614;9.882;2022-11-02T06:57:04;101191.03;;;14.06;70.16
21520;BME280;10921;53.614;9.882;2022-11-02T06:59:31;101196.41;;;14.06;70.39
21520;BME280;10921;53.614;9.882;2022-11-02T07:01:57;101184.78;;;13.98;70.54
21520;BME280;10921;53.614;9.882;2022-11-02T07:04:24;101202.94;;;14.04;70.90
21520;BME280;10921;53.614;9.882;2022-11-02T07:06:50;101207.78;;;14.00;71.42
21520;BME280;10921;53.614;9.882;2022-11-02T07:09:17;101198.19;;;13.98;71.07
21520;BME280;10921;53.614;9.882;2022-11-02T07:11:43;101180.88;;;13.92;71.15
21520;BME280;10921;53.614;9.882;2022-11-02T07:14:09;101206.16;;;14.07;70.99
21520;BME280;10921;53.614;9.882;2022-11-02T07:16:36;101206.00;;;14.09;70.94
21520;BME280;10921;53.614;9.882;2022-11-02T07:19:02;101202.94;;;14.04;70.90
21520;BME280;10921;53.614;9.882;2022-11-02T07:21:29;101203.47;;;14.07;70.26
21520;BME280;10921;53.614;9.882;2022-11-02T07:23:55;101212.34;;;14.08;70.41
21520;BME280;10921;53.614;9.882;2022-11-02T07:26:22;101216.88;;;14.07;70.60
21520;BME280;10921;53.614;9.882;2022-11-02T07:28:48;101202.41;;;14.00;70.31
21520;BME280;10921;53.614;9.882;2022-11-02T07:31:18;101198.88;;;14.00;70.11
21520;BME280;10921;53.614;9.882;2022-11-02T07:33:44;101212.34;;;14.08;70.06
21520;BME280;10921;53.614;9.882;2022-11-02T07:36:10;101214.44;;;14.14;69.69
21520;BME280;10921;53.614;9.882;2022-11-02T07:38:37;101208.53;;;14.11;70.01
21520;BME280;10921;53.614;9.882;2022-11-02T07:41:04;101200.94;;;14.06;69.48
21520;BME280;10921;53.614;9.882;2022-11-02T07:43:30;101210.28;;;14.20;69.47
21520;BME280;10921;53.614;9.882;2022-11-02T07:45:56;101203.31;;;14.09;69.67
21520;BME280;10921;53.614;9.882;2022-11-02T07:48:23;101214.44;;;14.14;69.37
21520;BME280;10921;53.614;9.882;2022-11-02T07:50:49;101226.06;;;14.23;69.43
21520;BME280;10921;53.614;9.882;2022-11-02T07:53:16;101221.63;;;14.31;68.98
21520;BME280;10921;53.614;9.882;2022-11-02T07:55:42;101231.34;;;14.32;68.97
21520;BME280;10921;53.614;9.882;2022-11-02T07:58:10;101227.91;;;14.40;68.85
21520;BME280;10921;53.614;9.882;2022-11-02T08:00:40;101217.16;;;14.40;68.58
21520;BME280;10921;53.614;9.882;2022-11-02T08:03:08;101192.09;;;14.31;68.35
21520;BME280;10921;53.614;9.882;2022-11-02T08:05:37;101222.44;;;14.50;68.20
21520;BME280;10921;53.614;9.882;2022-11-02T08:08:06;101216.69;;;14.45;67.71
21520;BME280;10921;53.614;9.882;2022-11-02T08:10:34;101227.84;;;14.58;67.64
21520;BME280;10921;53.614;9.882;2022-11-02T08:13:07;101217.94;;;14.50;67.55
21520;BME280;10921;53.614;9.882;2022-11-02T08:15:33;101217.50;;;14.63;67.04
21520;BME280;10921;53.614;9.882;2022-11-02T08:18:14;101228.94;;;14.65;67.48
21520;BME280;10921;53.614;9.882;2022-11-02T08:20:41;101219.38;;;14.70;66.69
21520;BME280;10921;53.614;9.882;2022-11-02T08:23:08;101226.28;;;14.73;66.63
21520;BME280;10921;53.614;9.882;2022-11-02T08:25:36;101239.59;;;14.83;66.37
21520;BME280;10921;53.614;9.882;2022-11-02T08:28:04;101252.53;;;14.87;66.15
21520;BME280;10921;53.614;9.882;2022-11-02T08:30:31;101218.06;;;14.74;65.71
21520;BME280;10921;53.614;9.882;2022-11-02T08:33:04;101240.63;;;14.90;65.67
21520;BME280;10921;53.614;9.882;2022-11-02T08:35:31;101246.22;;;14.96;65.21
21520;BME280;10921;53.614;9.882;2022-11-02T08:37:58;101248.78;;;15.06;64.55
21520;BME280;10921;53.614;9.882;2022-11-02T08:40:25;101253.00;;;15.08;63.86
21520;BME280;10921;53.614;9.882;2022-11-02T08:43:03;101259.63;;;15.22;63.88
21520;BME280;10921;53.614;9.882;2022-11-02T08:45:31;101262.00;;;15.25;63.24
21520;BME280;10921;53.614;9.882;2022-11-02T08:48:17;101249.22;;;15.27;62.90
21520;BME280;10921;53.614;9.882;2022-11-02T08:50:43;101258.00;;;15.37;62.73
21520;BME280;10921;53.614;9.882;2022-11-02T08:53:10;101256.16;;;15.38;62.06
21520;BME280;10921;53.614;9.882;2022-11-02T08:55:36;101267.28;;;15.51;62.16
21520;BME280;10921;53.614;9.882;2022-11-02T08:58:03;101270.22;;;15.58;61.88
21520;BME280;10921;53.614;9.882;2022-11-02T09:00:31;101255.22;;;15.55;61.68
21520;BME280;10921;53.614;9.882;2022-11-02T09:05:39;101267.69;;;15.64;61.44
21520;BME280;10921;53.614;9.882;2022-11-02T09:08:09;101268.38;;;15.66;61.53
21520;BME280;10921;53.614;9.882;2022-11-02T09:10:36;101259.78;;;15.63;61.51
21520;BME280;10921;53.614;9.882;2022-11-02T09:13:05;101267.69;;;15.64;61.45
21520;BME280;10921;53.614;9.882;2022-11-02T09:15:34;101262.97;;;15.58;61.64
21520;BME280;10921;53.614;9.882;2022-11-02T09:18:01;101274.22;;;15.62;61.41
21520;BME280;10921;53.614;9.882;2022-11-02T09:20:29;101261.63;;;15.62;61.20
21520;BME280;10921;53.614;9.882;2022-11-02T09:22:55;101276.81;;;15.71;61.55
21520;BME280;10921;53.614;9.882;2022-11-02T09:25:22;101279.66;;;15.70;61.29
21520;BME280;10921;53.614;9.882;2022-11-02T09:27:52;101270.75;;;15.77;61.36
21520;BME280;10921;53.614;9.882;2022-11-02T09:30:21;101283.72;;;15.82;61.11
21520;BME280;10921;53.614;9.882;2022-11-02T09:32:59;101280.00;;;15.83;61.30
21520;BME280;10921;53.614;9.882;2022-11-02T09:35:28;101285.38;;;15.75;60.79
21520;BME280;10921;53.614;9.882;2022-11-02T09:37:54;101278.81;;;15.77;60.81
21520;BME280;10921;53.614;9.882;2022-11-02T09:40:23;101292.47;;;15.84;61.10
21520;BME280;10921;53.614;9.882;2022-11-02T09:46:07;101307.44;;;15.87;61.00
21520;BME280;10921;53.614;9.882;2022-11-02T09:48:35;101304.56;;;15.80;60.55
21520;BME280;10921;53.614;9.882;2022-11-02T09:51:10;101294.63;;;15.80;61.49
21520;BME280;10921;53.614;9.882;2022-11-02T09:54:01;101303.72;;;15.79;61.19
21520;BME280;10921;53.614;9.882;2022-11-02T09:56:32;101286.88;;;15.69;61.08
21520;BME280;10921;53.614;9.882;2022-11-02T09:59:03;101310.25;;;15.69;62.25
21520;BME280;10921;53.614;9.882;2022-11-02T10:04:23;101322.97;;;15.59;65.40
21520;BME280;10921;53.614;9.882;2022-11-02T10:09:49;101325.00;;;15.31;65.33
21520;BME280;10921;53.614;9.882;2022-11-02T10:17:46;101323.13;;;14.71;68.26
21520;BME280;10921;53.614;9.882;2022-11-02T10:20:23;101342.03;;;14.62;68.92
21520;BME280;10921;53.614;9.882;2022-11-02T10:22:53;101342.91;;;14.45;70.27
21520;BME280;10921;53.614;9.882;2022-11-02T10:25:24;101332.72;;;14.21;71.29
21520;BME280;10921;53.614;9.882;2022-11-02T10:27:58;101345.34;;;14.20;71.47
21520;BME280;10921;53.614;9.882;2022-11-02T10:30:30;101326.97;;;13.98;71.69
21520;BME280;10921;53.614;9.882;2022-11-02T10:32:58;101350.91;;;14.09;71.79
21520;BME280;10921;53.614;9.882;2022-11-02T10:35:38;101338.31;;;14.09;73.03
21520;BME280;10921;53.614;9.882;2022-11-02T10:38:34;101350.91;;;14.27;72.41
21520;BME280;10921;53.614;9.882;2022-11-02T10:41:33;101352.19;;;14.50;72.91
21520;BME280;10921;53.614;9.882;2022-11-02T10:52:15;101360.81;;;15.57;68.22
21520;BME280;10921;53.614;9.882;2022-11-02T10:54:43;101360.00;;;15.65;67.43
21520;BME280;10921;53.614;9.882;2022-11-02T10:57:12;101348.09;;;15.75;66.57
21520;BME280;10921;53.614;9.882;2022-11-02T10:59:39;101364.13;;;15.85;66.20
21520;BME280;10921;53.614;9.882;2022-11-02T11:02:11;101352.66;;;15.83;65.89
21520;BME280;10921;53.614;9.882;2022-11-02T11:04:39;101377.91;;;15.90;65.32
21520;BME280;10921;53.614;9.882;2022-11-02T11:07:12;101366.97;;;15.92;64.83
21520;BME280;10921;53.614;9.882;2022-11-02T11:09:52;101382.13;;;15.85;64.84
21520;BME280;10921;53.614;9.882;2022-11-02T11:12:32;101396.94;;;15.89;65.31
21520;BME280;10921;53.614;9.882;2022-11-02T11:15:03;101369.63;;;15.75;64.75
21520;BME280;10921;53.614;9.882;2022-11-02T11:17:51;101360.22;;;15.79;62.92
21520;BME280;10921;53.614;9.882;2022-11-02T11:20:39;101385.66;;;15.93;61.94
21520;BME280;10921;53.614;9.882;2022-11-02T11:23:21;101382.50;;;15.98;61.70
21520;BME280;10921;53.614;9.882;2022-11-02T11:25:59;101409.09;;;16.01;60.82
21520;BME280;10921;53.614;9.882;2022-11-02T11:33:57;101426.19;;;15.92;62.19
21520;BME280;10921;53.614;9.882;2022-11-02T11:36:32;101396.19;;;15.70;63.88
21520;BME280;10921;53.614;9.882;2022-11-02T11:41:47;101429.50;;;15.52;66.28
21520;BME280;10921;53.614;9.882;2022-11-02T11:44:14;101431.28;;;15.43;67.77
21520;BME280;10921;53.614;9.882;2022-11-02T11:49:35;101444.81;;;15.51;67.26
21520;BME280;10921;53.614;9.882;2022-11-02T11:52:27;101450.09;;;15.43;65.86
21520;BME280;10921;53.614;9.882;2022-11-02T11:54:59;101446.22;;;15.37;66.23
21520;BME280;10921;53.614;9.882;2022-11-02T11:57:27;101459.13;;;15.34;65.50
21520;BME280;10921;53.614;9.882;2022-11-02T11:59:56;101461.97;;;15.32;65.30
21520;BME280;10921;53.614;9.882;2022-11-02T12:02:30;101472.44;;;15.35;65.71
21520;BME280;10921;53.614;9.882;2022-11-02T12:05:12;101456.59;;;15.32;65.38
21520;BME280;10921;53.614;9.882;2022-11-02T12:10:37;101412.19;;;15.28;63.90
21520;BME280;10921;53.614;9.882;2022-11-02T12:22:09;101468.94;;;15.43;64.52
21520;BME280;10921;53.614;9.882;2022-11-02T12:35:55;101457.81;;;16.40;60.65
21520;BME280;10921;53.614;9.882;2022-11-02T12:44:05;101463.16;;;17.06;57.48
21520;BME280;10921;53.614;9.882;2022-11-02T12:54:42;101486.03;;;17.75;53.69
21520;BME280;10921;53.614;9.882;2022-11-02T12:57:14;101501.00;;;17.94;52.55
21520;BME280;10921;53.614;9.882;2022-11-02T12:59:42;101509.44;;;17.99;52.10
21520;BME280;10921;53.614;9.882;2022-11-02T13:02:15;101506.34;;;18.10;52.06
21520;BME280;10921;53.614;9.882;2022-11-02T13:04:49;101483.72;;;18.11;52.03
21520;BME280;10921;53.614;9.882;2022-11-02T13:07:22;101477.03;;;17.91;51.17
21520;BME280;10921;53.614;9.882;2022-11-02T13:09:58;101492.44;;;17.82;51.14
21520;BME280;10921;53.614;9.882;2022-11-02T13:12:30;101505.59;;;17.61;52.15
21520;BME280;10921;53.614;9.882;2022-11-02T13:15:02;101535.63;;;17.50;52.27
21520;BME280;10921;53.614;9.882;2022-11-02T13:17:40;101542.38;;;17.21;52.82
21520;BME280;10921;53.614;9.882;2022-11-02T13:20:28;101549.44;;;16.98;53.81
21520;BME280;10921;53.614;9.882;2022-11-02T13:25:49;101558.22;;;16.58;54.95
21520;BME280;10921;53.614;9.882;2022-11-02T13:28:30;101553.47;;;16.44;55.54
21520;BME280;10921;53.614;9.882;2022-11-02T13:30:59;101588.94;;;16.31;56.05
21520;BME280;10921;53.614;9.882;2022-11-02T13:33:36;101576.78;;;16.27;56.01
21520;BME280;10921;53.614;9.882;2022-11-02T13:36:06;101583.09;;;16.10;55.91
21520;BME280;10921;53.614;9.882;2022-11-02T13:44:33;101604.38;;;15.95;56.86
21520;BME280;10921;53.614;9.882;2022-11-02T13:50:10;101595.03;;;15.81;57.78
21520;BME280;10921;53.614;9.882;2022-11-02T13:52:49;101612.97;;;15.99;57.70
21520;BME280;10921;53.614;9.882;2022-11-02T13:55:38;101587.91;;;15.98;57.50
21520;BME280;10921;53.614;9.882;2022-11-02T13:58:33;101591.56;;;16.23;57.84
21520;BME280;10921;53.614;9.882;2022-11-02T14:01:03;101596.66;;;16.26;56.47
21520;BME280;10921;53.614;9.882;2022-11-02T14:03:49;101591.34;;;16.42;56.40
21520;BME280;10921;53.614;9.882;2022-11-02T14:06:24;101611.31;;;16.66;55.67
21520;BME280;10921;53.614;9.882;2022-11-02T14:09:08;101600.59;;;16.82;56.18
21520;BME280;10921;53.614;9.882;2022-11-02T14:11:45;101602.84;;;16.95;55.50
21520;BME280;10921;53.614;9.882;2022-11-02T14:14:19;101606.09;;;17.14;55.16
21520;BME280;10921;53.614;9.882;2022-11-02T14:32:21;101591.75;;;17.14;54.30
21520;BME280;10921;53.614;9.882;2022-11-02T14:40:38;101616.06;;;17.22;54.84
21520;BME280;10921;53.614;9.882;2022-11-02T14:46:31;101640.00;;;17.33;54.89
21520;BME280;10921;53.614;9.882;2022-11-02T14:49:02;101628.88;;;17.20;54.52
21520;BME280;10921;53.614;9.882;2022-11-02T14:51:35;101632.56;;;17.19;54.78
21520;BME280;10921;53.614;9.882;2022-11-02T14:54:12;101637.97;;;17.11;54.26
21520;BME280;10921;53.614;9.882;2022-11-02T14:56:58;101639.75;;;17.02;54.67
21520;BME280;10921;53.614;9.882;2022-11-02T14:59:39;101632.63;;;16.85;54.94
21520;BME280;10921;53.614;9.882;2022-11-02T15:02:20;101640.50;;;16.70;54.60
21520;BME280;10921;53.614;9.882;2022-11-02T15:04:54;101619.28;;;16.41;54.81
21520;BME280;10921;53.614;9.882;2022-11-02T15:12:45;101641.34;;;15.93;54.93
21520;BME280;10921;53.614;9.882;2022-11-02T15:15:33;101650.38;;;15.84;55.36
21520;BME280;10921;53.614;9.882;2022-11-02T15:18:21;101645.31;;;15.63;55.61